Time;durP1;ratioP1;P1;durP2;ratioP2;P2;SDS_P1;SDS_P2;PMS_P1;PMS_P2;Temp;Humidity;BMP_temperature;BMP_pressure;BME280_temperature;BME280_humidity;BME280_pressure;Samples;Min_cycle;Max_cycle;Signal;HPM_P1;HPM_P2
2021/01/09 00:01:18;;;;;;;0.40;0.20;;;;;;;2.27;100.00;101061.50;5073477;28;20524;-69
2021/01/09 00:03:44;;;;;;;1.73;1.07;;;;;;;2.30;100.00;101068.22;5073529;28;20530;-69
2021/01/09 00:06:11;;;;;;;0.40;0.30;;;;;;;2.32;100.00;101060.78;5073692;28;20492;-69
2021/01/09 00:08:38;;;;;;;0.40;0.20;;;;;;;2.38;100.00;101059.03;5073619;28;20441;-68
2021/01/09 00:11:04;;;;;;;0.40;0.30;;;;;;;2.35;100.00;101060.34;5073301;28;20946;-69
2021/01/09 00:13:30;;;;;;;0.70;0.67;;;;;;;2.33;100.00;101058.94;5072441;28;20476;-69
2021/01/09 00:15:57;;;;;;;0.40;0.30;;;;;;;2.32;100.00;101066.13;5073584;28;20473;-69
2021/01/09 00:18:23;;;;;;;0.40;0.33;;;;;;;2.34;100.00;101058.69;5073472;28;20535;-68
2021/01/09 00:20:50;;;;;;;2.80;1.07;;;;;;;2.34;100.00;101065.91;5073076;28;20513;-69
2021/01/09 00:23:16;;;;;;;0.40;0.30;;;;;;;2.33;100.00;101056.25;5073408;28;20486;-69
2021/01/09 00:25:42;;;;;;;3.33;0.97;;;;;;;2.36;100.00;101056.59;5073110;28;20452;-69
2021/01/09 00:28:09;;;;;;;1.40;1.27;;;;;;;2.35;100.00;101057.66;5073032;28;20867;-69
2021/01/09 00:30:35;;;;;;;0.40;0.20;;;;;;;2.36;100.00;101061.94;5073346;28;20488;-69
2021/01/09 00:33:02;;;;;;;0.40;0.40;;;;;;;2.31;100.00;101061.03;5073260;28;20497;-69
2021/01/09 00:35:28;;;;;;;2.23;1.50;;;;;;;2.25;100.00;101057.41;5072979;28;20468;-69
2021/01/09 00:37:54;;;;;;;0.40;0.30;;;;;;;2.21;100.00;101066.94;5073119;28;20479;-69
2021/01/09 00:40:21;;;;;;;0.40;0.30;;;;;;;2.16;100.00;101062.31;5073162;28;20472;-69
2021/01/09 00:42:47;;;;;;;3.73;0.93;;;;;;;2.22;100.00;101065.94;5073194;28;20500;-69
2021/01/09 00:45:14;;;;;;;0.70;0.40;;;;;;;2.28;100.00;101064.97;5073185;28;20452;-69
2021/01/09 00:47:40;;;;;;;0.40;0.30;;;;;;;2.19;100.00;101069.06;5073222;28;20566;-69
2021/01/09 00:50:08;;;;;;;0.90;0.70;;;;;;;2.24;100.00;101061.94;5072837;28;20445;-68
2021/01/09 00:52:34;;;;;;;0.67;0.67;;;;;;;2.24;100.00;101069.97;5073066;28;20457;-69
2021/01/09 00:55:00;;;;;;;3.43;1.23;;;;;;;2.22;100.00;101077.41;5073116;28;20519;-69
2021/01/09 00:57:27;;;;;;;3.80;1.93;;;;;;;2.24;100.00;101075.31;5072757;28;20495;-69
2021/01/09 00:59:53;;;;;;;0.40;0.37;;;;;;;2.25;100.00;101076.94;5073019;28;20476;-68
2021/01/09 01:02:19;;;;;;;3.90;0.67;;;;;;;2.29;100.00;101082.63;5072551;28;20492;-69
2021/01/09 01:04:47;;;;;;;1.20;1.10;;;;;;;2.28;100.00;101075.66;5073022;28;20439;-69
2021/01/09 01:07:14;;;;;;;1.57;1.43;;;;;;;2.31;100.00;101079.75;5072640;28;20484;-69
2021/01/09 01:09:40;;;;;;;0.40;0.30;;;;;;;2.28;100.00;101084.50;5072951;28;20449;-69
2021/01/09 01:12:07;;;;;;;0.40;0.20;;;;;;;2.31;100.00;101093.09;5072546;28;20986;-69
2021/01/09 01:14:33;;;;;;;0.97;0.73;;;;;;;2.28;100.00;101087.16;5072809;28;20503;-69
2021/01/09 01:16:59;;;;;;;0.40;0.30;;;;;;;2.36;100.00;101094.03;5072537;28;20822;-69
2021/01/09 01:19:25;;;;;;;2.50;0.57;;;;;;;2.35;100.00;101095.09;5072540;28;20953;-68
2021/01/09 01:21:52;;;;;;;0.40;0.20;;;;;;;2.37;100.00;101094.84;5072757;28;20483;-69
2021/01/09 01:24:19;;;;;;;0.80;0.80;;;;;;;2.34;100.00;101103.31;5073918;28;20516;-69
2021/01/09 01:26:45;;;;;;;0.50;0.47;;;;;;;2.33;100.00;101099.84;5076291;28;20495;-69
2021/01/09 01:29:11;;;;;;;0.40;0.30;;;;;;;2.32;100.00;101097.41;5076350;28;21023;-69
2021/01/09 01:31:37;;;;;;;0.40;0.30;;;;;;;2.30;100.00;101099.47;5076282;28;20950;-69
2021/01/09 01:34:03;;;;;;;0.40;0.27;;;;;;;2.24;100.00;101107.38;5076467;28;20500;-69
2021/01/09 01:36:29;;;;;;;1.57;1.07;;;;;;;2.21;100.00;101101.69;5076475;28;20437;-69
2021/01/09 01:38:56;;;;;;;1.57;1.47;;;;;;;2.16;100.00;101099.72;5076673;28;20449;-69
2021/01/09 01:41:23;;;;;;;1.43;1.27;;;;;;;2.19;100.00;101099.25;5076026;28;21028;-70
2021/01/09 01:43:49;;;;;;;1.83;1.03;;;;;;;2.21;100.00;101102.53;5075970;28;20497;-69
2021/01/09 01:46:16;;;;;;;0.70;0.57;;;;;;;2.20;100.00;101100.88;5076250;28;20448;-69
2021/01/09 01:48:42;;;;;;;1.87;1.23;;;;;;;2.23;100.00;101104.97;5076294;28;20445;-69
2021/01/09 01:51:12;;;;;;;0.40;0.30;;;;;;;2.25;100.00;101106.34;5076205;28;20490;-69
2021/01/09 01:53:38;;;;;;;0.40;0.30;;;;;;;2.26;100.00;101105.31;5075841;28;21022;-70
2021/01/09 01:56:06;;;;;;;2.43;2.20;;;;;;;2.23;100.00;101105.78;5076124;28;20445;-69
2021/01/09 01:58:33;;;;;;;0.40;0.30;;;;;;;2.23;100.00;101100.41;5076095;28;20488;-69
2021/01/09 02:00:59;;;;;;;0.40;0.30;;;;;;;2.26;100.00;101104.50;5075673;28;21036;-69
2021/01/09 02:03:26;;;;;;;0.40;0.30;;;;;;;2.26;100.00;101107.19;5075607;28;20476;-68
2021/01/09 02:06:01;;;;;;;0.53;0.53;;;;;;;2.19;100.00;101104.59;5075627;28;20442;-68
2021/01/09 02:08:35;;;;;;;0.50;0.40;;;;;;;2.14;100.00;101109.84;5075907;28;20425;-68
2021/01/09 02:11:05;;;;;;;0.60;0.60;;;;;;;2.13;100.00;101110.06;5075897;28;20847;-68
2021/01/09 02:13:44;;;;;;;0.60;0.50;;;;;;;2.13;100.00;101116.22;5075771;28;20932;-69
2021/01/09 02:16:11;;;;;;;0.60;0.37;;;;;;;2.11;100.00;101110.28;5076116;28;20474;-69
2021/01/09 02:18:40;;;;;;;0.50;0.43;;;;;;;2.08;100.00;101112.59;5075411;28;20484;-69
2021/01/09 02:21:19;;;;;;;0.40;0.30;;;;;;;2.09;100.00;101109.72;5075251;28;20516;-69
2021/01/09 02:23:46;;;;;;;0.60;0.50;;;;;;;2.17;100.00;101108.53;5075753;28;20460;-69
2021/01/09 02:26:12;;;;;;;0.50;0.50;;;;;;;2.19;100.00;101111.81;5075220;28;20502;-69
2021/01/09 02:28:39;;;;;;;0.53;0.40;;;;;;;2.19;100.00;101114.47;5075497;28;20472;-69
2021/01/09 02:31:07;;;;;;;0.40;0.20;;;;;;;2.17;100.00;101116.56;5075549;28;20444;-69
2021/01/09 02:33:34;;;;;;;0.47;0.40;;;;;;;2.16;100.00;101112.25;5075369;28;20521;-68
2021/01/09 02:36:02;;;;;;;2.10;0.70;;;;;;;2.16;100.00;101117.59;5074444;28;20441;-69
2021/01/09 02:38:28;;;;;;;0.40;0.30;;;;;;;2.14;100.00;101117.03;5075357;28;20473;-69
2021/01/09 02:40:55;;;;;;;1.23;0.53;;;;;;;2.09;100.00;101115.06;5075238;28;20971;-69
2021/01/09 02:43:26;;;;;;;0.40;0.23;;;;;;;2.06;100.00;101114.72;5075157;28;20465;-69
2021/01/09 02:45:52;;;;;;;0.40;0.30;;;;;;;2.09;100.00;101115.06;5075517;28;20443;-69
2021/01/09 02:48:18;;;;;;;0.40;0.30;;;;;;;2.12;100.00;101124.47;5075161;28;20534;-69
2021/01/09 02:50:44;;;;;;;0.40;0.20;;;;;;;2.12;100.00;101117.25;5075163;28;20438;-71
2021/01/09 02:53:10;;;;;;;0.40;0.30;;;;;;;2.11;100.00;101120.97;5074986;28;20500;-70
2021/01/09 02:55:36;;;;;;;0.40;0.30;;;;;;;2.09;100.00;101119.59;5074703;28;20483;-69
2021/01/09 02:58:03;;;;;;;1.10;0.40;;;;;;;2.15;100.00;101124.00;5075012;28;20817;-68
2021/01/09 03:00:30;;;;;;;0.40;0.20;;;;;;;2.18;100.00;101127.03;5074466;28;20477;-67
2021/01/09 03:02:56;;;;;;;0.40;0.30;;;;;;;2.21;100.00;101129.25;5074591;28;20471;-68
2021/01/09 03:05:22;;;;;;;0.50;0.40;;;;;;;2.23;100.00;101137.03;5074829;28;20451;-68
2021/01/09 03:07:48;;;;;;;0.40;0.30;;;;;;;2.18;100.00;101127.03;5074876;28;20444;-68
2021/01/09 03:10:14;;;;;;;1.13;0.73;;;;;;;2.12;100.00;101133.28;5074471;28;20457;-68
2021/01/09 03:12:40;;;;;;;0.40;0.30;;;;;;;2.10;100.00;101138.06;5074671;28;20914;-68
2021/01/09 03:15:09;;;;;;;1.47;0.87;;;;;;;2.15;100.00;101140.84;5074282;28;20984;-68
2021/01/09 03:17:35;;;;;;;0.40;0.30;;;;;;;2.20;100.00;101137.47;5074379;28;20471;-68
2021/01/09 03:20:01;;;;;;;0.40;0.30;;;;;;;2.21;100.00;101144.44;5074560;28;20437;-67
2021/01/09 03:22:27;;;;;;;0.73;0.73;;;;;;;2.24;100.00;101155.50;5074048;28;20481;-68
2021/01/09 03:24:53;;;;;;;0.40;0.30;;;;;;;2.23;100.00;101148.53;5074121;28;20935;-67
2021/01/09 03:27:19;;;;;;;0.40;0.30;;;;;;;2.24;100.00;101150.16;5074367;28;20441;-67
2021/01/09 03:29:46;;;;;;;0.40;0.30;;;;;;;2.23;100.00;101148.53;5074317;28;20454;-67
2021/01/09 03:32:13;;;;;;;0.70;0.70;;;;;;;2.26;100.00;101155.28;5074202;28;20438;-67
2021/01/09 03:34:39;;;;;;;0.40;0.27;;;;;;;2.28;100.00;101155.84;5074315;28;20440;-68
2021/01/09 03:37:05;;;;;;;1.53;0.50;;;;;;;2.28;100.00;101162.00;5074230;28;20445;-67
2021/01/09 03:39:32;;;;;;;0.40;0.20;;;;;;;2.30;100.00;101166.28;5074118;28;20480;-67
2021/01/09 03:41:58;;;;;;;0.40;0.20;;;;;;;2.31;100.00;101162.59;5073757;28;21018;-67
2021/01/09 03:44:24;;;;;;;0.40;0.30;;;;;;;2.31;100.00;101165.28;5074038;28;20493;-67
2021/01/09 03:46:50;;;;;;;0.40;0.30;;;;;;;2.28;100.00;101158.53;5073977;28;20475;-67
2021/01/09 03:49:17;;;;;;;0.40;0.30;;;;;;;2.30;100.00;101160.94;5074010;28;20441;-67
2021/01/09 03:51:43;;;;;;;0.60;0.60;;;;;;;2.26;100.00;101164.09;5073660;28;20814;-67
2021/01/09 03:54:09;;;;;;;0.40;0.20;;;;;;;2.24;100.00;101165.38;5073781;28;20463;-68
2021/01/09 03:56:35;;;;;;;0.40;0.20;;;;;;;2.21;100.00;101163.16;5073931;28;20466;-67
2021/01/09 03:59:02;;;;;;;0.40;0.20;;;;;;;2.24;100.00;101171.53;5073776;28;20449;-68
2021/01/09 04:01:28;;;;;;;0.70;0.70;;;;;;;2.24;100.00;101171.53;5073656;28;20512;-68
2021/01/09 04:03:54;;;;;;;0.77;0.77;;;;;;;2.26;100.00;101182.81;5098576;22;20870;-75
2021/01/09 04:06:21;;;;;;;0.40;0.30;;;;;;;2.23;100.00;101179.78;5073842;28;20799;-75
2021/01/09 04:08:47;;;;;;;0.40;0.30;;;;;;;2.31;100.00;101178.63;5073853;28;20503;-75
2021/01/09 04:11:14;;;;;;;0.40;0.20;;;;;;;2.26;100.00;101182.00;5085543;22;20497;-66
2021/01/09 04:13:40;;;;;;;0.77;0.77;;;;;;;2.34;100.00;101180.81;5087365;28;20497;-67
2021/01/09 04:16:06;;;;;;;0.57;0.57;;;;;;;2.39;100.00;101180.94;5099791;28;20954;-67
2021/01/09 04:18:33;;;;;;;0.43;0.40;;;;;;;2.39;100.00;101187.13;5098648;28;20456;-65
2021/01/09 04:20:59;;;;;;;0.40;0.20;;;;;;;2.36;100.00;101182.25;5098633;28;20519;-66
2021/01/09 04:23:26;;;;;;;0.40;0.30;;;;;;;2.32;100.00;101178.41;5099119;28;20468;-66
2021/01/09 04:25:52;;;;;;;0.40;0.30;;;;;;;2.36;100.00;101182.25;5099139;28;20941;-66
2021/01/09 04:28:19;;;;;;;10.03;1.03;;;;;;;2.39;100.00;101191.63;5098357;28;20808;-66
2021/01/09 04:30:45;;;;;;;0.40;0.20;;;;;;;2.40;100.00;101190.63;5099290;28;20911;-66
2021/01/09 04:33:11;;;;;;;1.70;1.10;;;;;;;2.39;100.00;101189.81;5099352;28;20471;-66
2021/01/09 04:35:37;;;;;;;0.40;0.30;;;;;;;2.37;100.00;101189.22;5098732;28;20494;-66
2021/01/09 04:38:04;;;;;;;0.70;0.63;;;;;;;2.39;100.00;101196.97;5098160;28;20456;-66
2021/01/09 04:40:31;;;;;;;1.47;1.37;;;;;;;2.44;100.00;101186.44;5097686;28;20444;-65
2021/01/09 04:42:58;;;;;;;0.40;0.30;;;;;;;2.40;100.00;101196.78;5097291;28;21016;-66
2021/01/09 04:45:24;;;;;;;0.40;0.30;;;;;;;2.34;100.00;101199.53;5097966;28;20447;-66
2021/01/09 04:47:52;;;;;;;1.57;0.53;;;;;;;2.32;100.00;101201.63;5097557;28;20437;-65
2021/01/09 04:50:20;;;;;;;0.40;0.30;;;;;;;2.27;100.00;101199.66;5096900;28;20472;-66
2021/01/09 04:52:46;;;;;;;0.40;0.30;;;;;;;2.25;100.00;101210.56;5097937;28;20442;-66
2021/01/09 04:55:14;;;;;;;0.60;0.53;;;;;;;2.21;100.00;101212.09;5096907;28;20446;-64
2021/01/09 04:57:41;;;;;;;1.03;0.70;;;;;;;2.22;100.00;101205.69;5097141;28;20551;-66
2021/01/09 05:00:08;;;;;;;0.50;0.40;;;;;;;2.24;100.00;101211.63;5099198;28;20453;-66
2021/01/09 05:02:36;;;;;;;0.40;0.30;;;;;;;2.21;100.00;101220.13;5100236;28;20480;-69
2021/01/09 05:05:03;;;;;;;0.40;0.30;;;;;;;2.24;100.00;101218.81;5100692;28;20471;-66
2021/01/09 05:07:30;;;;;;;0.40;0.30;;;;;;;2.15;100.00;101213.00;5100809;28;20432;-65
2021/01/09 05:10:01;;;;;;;9.30;0.93;;;;;;;2.20;100.00;101223.81;5101649;28;20459;-66
2021/01/09 05:12:32;;;;;;;3.93;0.97;;;;;;;2.19;100.00;101222.19;5091116;28;20429;-66
2021/01/09 05:15:00;;;;;;;0.40;0.30;;;;;;;2.23;100.00;101222.53;5102499;28;20840;-67
2021/01/09 05:17:26;;;;;;;0.40;0.27;;;;;;;2.22;100.00;101224.41;5102069;28;20521;-66
2021/01/09 05:19:52;;;;;;;0.50;0.30;;;;;;;2.27;100.00;101234.41;5102042;28;20444;-68
2021/01/09 05:22:20;;;;;;;0.40;0.30;;;;;;;2.27;100.00;101234.41;5101206;28;20488;-67
2021/01/09 05:24:47;;;;;;;0.40;0.30;;;;;;;2.24;100.00;101233.00;5101457;28;20468;-65
2021/01/09 05:27:16;;;;;;;0.40;0.30;;;;;;;2.28;100.00;101239.50;5101663;28;20451;-67
2021/01/09 05:29:42;;;;;;;2.90;1.23;;;;;;;2.25;100.00;101245.31;5101348;28;20444;-67
2021/01/09 05:32:10;;;;;;;0.40;0.30;;;;;;;2.28;100.00;101244.84;5101630;28;20486;-67
2021/01/09 05:34:47;;;;;;;0.40;0.27;;;;;;;2.31;100.00;101248.13;5101219;28;20464;-65
2021/01/09 05:37:18;;;;;;;0.40;0.30;;;;;;;2.32;100.00;101250.56;5100758;28;20435;-67
2021/01/09 05:39:55;;;;;;;0.40;0.30;;;;;;;2.33;100.00;101254.88;5101182;28;20455;-66
2021/01/09 05:42:23;;;;;;;0.40;0.30;;;;;;;2.30;100.00;101247.28;5101640;28;20468;-65
2021/01/09 05:44:51;;;;;;;0.40;0.30;;;;;;;2.28;100.00;101252.88;5101818;28;20460;-65
2021/01/09 05:47:20;;;;;;;1.07;1.07;;;;;;;2.31;100.00;101254.28;5101655;28;20450;-66
2021/01/09 05:49:47;;;;;;;0.40;0.20;;;;;;;2.27;100.00;101245.91;5101772;28;20511;-66
2021/01/09 05:52:13;;;;;;;1.80;1.33;;;;;;;2.29;100.00;101248.34;5100939;28;20880;-66
2021/01/09 05:54:39;;;;;;;0.40;0.30;;;;;;;2.28;100.00;101254.75;5101038;28;20836;-65
2021/01/09 05:57:06;;;;;;;0.50;0.50;;;;;;;2.16;100.00;101265.38;5101067;28;20451;-67
2021/01/09 05:59:33;;;;;;;0.40;0.30;;;;;;;2.21;100.00;101267.38;5100556;28;20455;-65
2021/01/09 06:02:00;;;;;;;0.63;0.60;;;;;;;2.15;100.00;101269.09;5099851;28;20484;-66
2021/01/09 06:04:30;;;;;;;0.40;0.30;;;;;;;2.13;100.00;101273.06;5101557;28;20467;-65
2021/01/09 06:07:05;;;;;;;0.40;0.20;;;;;;;2.14;100.00;101272.84;5098111;28;20445;-64
2021/01/09 06:09:35;;;;;;;0.40;0.30;;;;;;;2.22;100.00;101274.38;5095706;28;20446;-65
2021/01/09 06:12:05;;;;;;;0.50;0.40;;;;;;;2.24;100.00;101278.44;5101067;28;20452;-64
2021/01/09 06:14:34;;;;;;;1.83;0.90;;;;;;;2.19;100.00;101280.16;5109419;28;20466;-63
2021/01/09 06:17:01;;;;;;;0.40;0.40;;;;;;;2.27;100.00;101277.97;5107950;28;20472;-62
2021/01/09 06:19:28;;;;;;;1.10;1.00;;;;;;;2.24;100.00;101294.47;5107756;28;20444;-62
2021/01/09 06:21:56;;;;;;;0.70;0.70;;;;;;;2.24;100.00;101286.44;5107203;28;20492;-62
2021/01/09 06:24:23;;;;;;;0.40;0.27;;;;;;;2.22;100.00;101280.53;5106701;28;20501;-63
2021/01/09 06:26:50;;;;;;;0.40;0.30;;;;;;;2.19;100.00;101288.19;5106538;28;20481;-63
2021/01/09 06:29:21;;;;;;;0.40;0.30;;;;;;;2.23;100.00;101292.03;5106137;28;20462;-62
2021/01/09 06:31:53;;;;;;;1.10;1.03;;;;;;;2.25;100.00;101300.63;5106866;28;20428;-63
2021/01/09 06:34:21;;;;;;;0.40;0.30;;;;;;;2.31;100.00;101298.91;5105575;28;20474;-63
2021/01/09 06:36:55;;;;;;;0.70;0.70;;;;;;;2.36;100.00;101297.19;5105554;28;20448;-63
2021/01/09 06:39:24;;;;;;;0.40;0.40;;;;;;;2.36;100.00;101304.38;5105833;28;20924;-61
2021/01/09 06:41:52;;;;;;;0.40;0.30;;;;;;;2.33;100.00;101307.50;5106211;28;20493;-63
2021/01/09 06:44:21;;;;;;;0.70;0.53;;;;;;;2.18;100.00;101308.75;5105362;28;20459;-64
2021/01/09 06:46:47;;;;;;;0.40;0.27;;;;;;;2.23;100.00;101302.72;5106120;28;20482;-63
2021/01/09 06:49:18;;;;;;;0.40;0.30;;;;;;;2.31;100.00;101313.09;5105252;28;20857;-63
2021/01/09 06:51:57;;;;;;;0.40;0.20;;;;;;;2.33;100.00;101318.19;5105722;28;20945;-62
2021/01/09 06:54:43;;;;;;;0.40;0.20;;;;;;;2.28;100.00;101316.22;5105672;28;20460;-62
2021/01/09 06:57:17;;;;;;;1.37;1.10;;;;;;;2.22;100.00;101317.94;5105451;28;20481;-63
2021/01/09 06:59:45;;;;;;;0.60;0.60;;;;;;;2.16;100.00;101318.84;5104047;28;20918;-61
2021/01/09 07:02:22;;;;;;;0.40;0.30;;;;;;;2.15;100.00;101321.75;5105481;28;20490;-63
2021/01/09 07:04:57;;;;;;;1.27;1.17;;;;;;;2.18;100.00;101322.13;5105404;28;20830;-62
2021/01/09 07:07:37;;;;;;;0.40;0.30;;;;;;;2.17;100.00;101331.19;5103142;28;20478;-63
2021/01/09 07:10:11;;;;;;;0.40;0.30;;;;;;;2.18;100.00;101332.00;5097448;28;20900;-62
2021/01/09 07:12:39;;;;;;;0.40;0.20;;;;;;;2.19;100.00;101334.44;5097647;28;20440;-65
2021/01/09 07:15:07;;;;;;;0.40;0.40;;;;;;;2.17;100.00;101333.84;5101440;28;20948;-63
2021/01/09 07:17:38;;;;;;;0.40;0.30;;;;;;;2.20;100.00;101330.69;5103640;28;20444;-65
2021/01/09 07:20:06;;;;;;;0.40;0.30;;;;;;;2.21;100.00;101347.56;5102665;28;20802;-65
2021/01/09 07:22:38;;;;;;;1.57;0.70;;;;;;;2.21;100.00;101337.69;5102455;28;20600;-65
2021/01/09 07:25:07;;;;;;;0.40;0.30;;;;;;;2.28;100.00;101349.09;5104242;28;20918;-66
2021/01/09 07:27:35;;;;;;;0.40;0.20;;;;;;;2.25;100.00;101344.19;5105197;28;20441;-65
2021/01/09 07:30:08;;;;;;;0.40;0.30;;;;;;;2.25;100.00;101362.09;5105148;28;20432;-66
2021/01/09 07:32:44;;;;;;;0.60;0.50;;;;;;;2.25;100.00;101357.56;5103852;28;20977;-65
2021/01/09 07:35:11;;;;;;;2.73;0.70;;;;;;;2.31;100.00;101357.72;5103518;28;20427;-65
2021/01/09 07:37:40;;;;;;;0.40;0.23;;;;;;;2.32;100.00;101362.84;5104337;28;20440;-64
2021/01/09 07:40:12;;;;;;;0.43;0.37;;;;;;;2.37;100.00;101359.47;5103540;28;20447;-65
2021/01/09 07:42:39;;;;;;;0.40;0.23;;;;;;;2.32;100.00;101354.81;5103047;28;20539;-65
2021/01/09 07:45:06;;;;;;;0.70;0.67;;;;;;;2.38;100.00;101361.09;5103150;28;20441;-65
2021/01/09 07:47:38;;;;;;;1.27;1.17;;;;;;;2.40;100.00;101361.72;5102518;28;20439;-64
2021/01/09 07:50:07;;;;;;;1.97;0.93;;;;;;;2.44;100.00;101362.88;5102627;28;20915;-65
2021/01/09 07:52:34;;;;;;;0.40;0.30;;;;;;;2.43;99.76;101371.91;5103162;28;20441;-65
2021/01/09 07:55:01;;;;;;;0.70;0.40;;;;;;;2.41;99.60;101369.50;5102543;28;20477;-65
2021/01/09 07:57:27;;;;;;;0.40;0.30;;;;;;;2.37;99.32;101367.50;5102696;28;20463;-65
2021/01/09 08:00:03;;;;;;;0.60;0.60;;;;;;;2.26;99.48;101375.25;5102092;28;20469;-64
2021/01/09 08:02:31;;;;;;;0.50;0.40;;;;;;;2.34;100.00;101381.31;5102418;28;20484;-65
2021/01/09 08:05:09;;;;;;;0.40;0.20;;;;;;;2.41;99.61;101384.72;5101971;28;20517;-65
2021/01/09 08:07:37;;;;;;;0.70;0.43;;;;;;;2.40;99.62;101391.13;5101609;28;20447;-64
2021/01/09 08:10:29;;;;;;;0.40;0.30;;;;;;;2.38;99.59;101385.16;5101833;28;20493;-65
2021/01/09 08:12:58;;;;;;;0.40;0.30;;;;;;;2.43;99.27;101393.31;5086289;28;20445;-65
2021/01/09 08:15:25;;;;;;;0.67;0.60;;;;;;;2.48;98.81;101388.13;5100986;28;20444;-63
2021/01/09 08:17:51;;;;;;;1.13;0.50;;;;;;;2.48;99.29;101396.16;5101409;28;20477;-64
2021/01/09 08:20:18;;;;;;;0.60;0.50;;;;;;;2.46;98.91;101403.56;5101281;28;20430;-65
2021/01/09 08:22:58;;;;;;;0.40;0.20;;;;;;;2.49;99.33;101398.59;5100710;28;20533;-65
2021/01/09 08:25:28;;;;;;;0.40;0.40;;;;;;;2.50;99.48;101402.06;5097972;28;20481;-64
2021/01/09 08:27:56;;;;;;;0.40;0.30;;;;;;;2.51;99.50;101411.72;5096319;28;20454;-64
2021/01/09 08:30:24;;;;;;;0.40;0.30;;;;;;;2.52;99.19;101408.00;5095227;28;20437;-65
2021/01/09 08:33:00;;;;;;;0.90;0.87;;;;;;;2.54;99.59;101405.91;5093944;28;20469;-65
2021/01/09 08:35:26;;;;;;;3.07;1.67;;;;;;;2.51;99.45;101409.03;5094874;28;20424;-65
2021/01/09 08:37:53;;;;;;;0.40;0.30;;;;;;;2.52;99.44;101408.00;5095964;28;20443;-65
2021/01/09 08:40:21;;;;;;;10.60;1.17;;;;;;;2.46;100.00;101414.25;5097637;28;20460;-66
2021/01/09 08:42:56;;;;;;;0.40;0.30;;;;;;;2.43;100.00;101412.03;5095600;28;20634;-63
2021/01/09 08:45:41;;;;;;;2.40;1.13;;;;;;;2.49;100.00;101411.94;5093730;28;20446;-65
2021/01/09 08:48:10;;;;;;;0.40;0.30;;;;;;;2.49;100.00;101411.94;5093406;28;20440;-66
2021/01/09 08:50:43;;;;;;;5.93;1.17;;;;;;;2.51;100.00;101409.84;5093239;28;20447;-68
2021/01/09 08:53:10;;;;;;;0.57;0.57;;;;;;;2.52;100.00;101416.00;5093296;28;20484;-65
2021/01/09 08:55:37;;;;;;;0.40;0.30;;;;;;;2.56;100.00;101421.72;5093295;28;20475;-65
2021/01/09 08:58:08;;;;;;;0.40;0.20;;;;;;;2.61;100.00;101419.19;5093322;28;20440;-64
2021/01/09 09:00:34;;;;;;;1.23;0.50;;;;;;;2.63;100.00;101431.28;5093153;28;20914;-66
2021/01/09 09:03:02;;;;;;;0.40;0.30;;;;;;;2.64;100.00;101434.78;5094937;28;20518;-67
2021/01/09 09:05:29;;;;;;;0.60;0.50;;;;;;;2.60;100.00;101431.75;5097586;28;20830;-65
2021/01/09 09:07:57;;;;;;;0.53;0.40;;;;;;;2.59;100.00;101437.31;5097267;28;20471;-65
2021/01/09 09:10:24;;;;;;;0.40;0.30;;;;;;;2.64;100.00;101442.81;5095960;28;20949;-66
2021/01/09 09:12:50;;;;;;;2.73;0.60;;;;;;;2.64;100.00;101434.78;5095416;28;20441;-66
2021/01/09 09:15:28;;;;;;;0.80;0.80;;;;;;;2.61;100.00;101438.75;5094885;28;20464;-63
2021/01/09 09:17:55;;;;;;;0.60;0.40;;;;;;;2.54;100.00;101438.00;5096530;28;20519;-64
2021/01/09 09:20:24;;;;;;;0.77;0.73;;;;;;;2.59;100.00;101442.69;5097011;28;20850;-64
2021/01/09 09:22:52;;;;;;;1.53;0.77;;;;;;;2.50;100.00;101439.50;5096432;28;20486;-66
2021/01/09 09:25:24;;;;;;;0.40;0.30;;;;;;;2.60;100.00;101445.13;5096500;28;20489;-66
2021/01/09 09:27:51;;;;;;;3.80;0.80;;;;;;;2.66;100.00;101444.22;5096057;28;20953;-64
2021/01/09 09:30:18;;;;;;;0.40;0.30;;;;;;;2.61;100.00;101448.59;5096493;28;20944;-66
2021/01/09 09:32:47;;;;;;;0.40;0.23;;;;;;;2.64;100.00;101443.63;5097243;28;20439;-65
2021/01/09 09:35:20;;;;;;;0.60;0.30;;;;;;;2.63;100.00;101439.31;5097217;28;20444;-66
2021/01/09 09:37:47;;;;;;;0.80;0.50;;;;;;;2.70;100.00;101442.72;5097930;28;20444;-65
2021/01/09 09:40:26;;;;;;;0.50;0.50;;;;;;;2.78;100.00;101445.06;5097897;28;20452;-64
2021/01/09 09:42:52;;;;;;;0.40;0.30;;;;;;;2.76;100.00;101441.81;5096912;28;21004;-65
2021/01/09 09:45:19;;;;;;;1.03;0.93;;;;;;;2.75;100.00;101445.53;5098064;28;20933;-65
2021/01/09 09:47:51;;;;;;;0.40;0.30;;;;;;;2.67;100.00;101447.72;5100525;28;20452;-65
2021/01/09 09:50:21;;;;;;;0.60;0.57;;;;;;;2.65;100.00;101442.56;5100820;28;20941;-66
2021/01/09 09:52:56;;;;;;;1.10;1.03;;;;;;;2.66;100.00;101448.75;5100670;28;20440;-65
2021/01/09 09:55:24;;;;;;;0.40;0.30;;;;;;;2.67;100.00;101445.84;5100695;28;20432;-66
2021/01/09 09:58:04;;;;;;;0.50;0.30;;;;;;;2.63;100.00;101439.31;5100291;28;20448;-65
2021/01/09 10:00:31;;;;;;;1.03;0.97;;;;;;;2.64;100.00;101438.28;5100743;28;20428;-65
2021/01/09 10:02:58;;;;;;;0.57;0.40;;;;;;;2.67;100.00;101440.50;5100194;28;20476;-65
2021/01/09 10:05:25;;;;;;;1.13;0.87;;;;;;;2.70;100.00;101448.09;5101988;28;20448;-64
2021/01/09 10:08:09;;;;;;;0.40;0.27;;;;;;;2.74;100.00;101446.56;5100707;28;20451;-65
2021/01/09 10:10:35;;;;;;;0.53;0.50;;;;;;;2.80;100.00;101457.41;5100381;28;20474;-65
2021/01/09 10:13:02;;;;;;;0.40;0.30;;;;;;;2.80;100.00;101452.06;5100121;28;20531;-66
2021/01/09 10:15:28;;;;;;;0.40;0.30;;;;;;;2.83;100.00;101459.59;5100653;28;20439;-65
2021/01/09 10:17:55;;;;;;;1.27;1.17;;;;;;;2.84;100.00;101455.91;5100465;28;20471;-65
2021/01/09 10:20:23;;;;;;;0.40;0.20;;;;;;;2.85;100.00;101457.53;5100708;28;20436;-66
2021/01/09 10:22:49;;;;;;;0.40;0.30;;;;;;;2.87;100.00;101455.44;5100441;28;20496;-66
2021/01/09 10:25:16;;;;;;;0.50;0.50;;;;;;;2.89;100.00;101456.03;5100475;28;20821;-65
2021/01/09 10:27:42;;;;;;;0.40;0.40;;;;;;;2.89;100.00;101464.06;5099291;28;20940;-65
2021/01/09 10:30:09;;;;;;;0.40;0.30;;;;;;;2.94;100.00;101456.97;5100945;28;20448;-63
2021/01/09 10:32:35;;;;;;;0.77;0.50;;;;;;;2.86;100.00;101459.16;5100050;28;20440;-64
2021/01/09 10:35:02;;;;;;;0.40;0.30;;;;;;;2.88;100.00;101460.59;5099382;28;20568;-65
2021/01/09 10:37:29;;;;;;;0.40;0.30;;;;;;;2.95;100.00;101460.47;5099782;28;20486;-66
2021/01/09 10:39:55;;;;;;;0.40;0.30;;;;;;;2.96;100.00;101462.09;5099314;28;20946;-64
2021/01/09 10:42:21;;;;;;;0.40;0.30;;;;;;;2.99;100.00;101461.66;5099796;28;20480;-65
2021/01/09 10:44:48;;;;;;;1.47;1.00;;;;;;;3.01;100.00;101462.22;5099416;28;20467;-65
2021/01/09 10:47:14;;;;;;;0.67;0.50;;;;;;;2.99;100.00;101461.66;5099207;28;20552;-66
2021/01/09 10:49:40;;;;;;;0.70;0.40;;;;;;;3.06;100.00;101462.38;5099427;28;20937;-64
2021/01/09 10:52:06;;;;;;;0.40;0.30;;;;;;;3.12;100.00;101460.63;5100095;28;20452;-66
2021/01/09 10:54:33;;;;;;;1.37;1.27;;;;;;;3.19;100.00;101461.34;5099843;28;20475;-65
2021/01/09 10:57:00;;;;;;;0.40;0.20;;;;;;;3.18;100.00;101460.53;5098544;28;20428;-65
2021/01/09 10:59:26;;;;;;;0.40;0.30;;;;;;;3.03;100.00;101457.47;5098601;28;20942;-64
2021/01/09 11:01:56;;;;;;;0.40;0.30;;;;;;;2.97;100.00;101466.44;5099184;28;20854;-65
2021/01/09 11:04:22;;;;;;;0.40;0.20;;;;;;;3.06;100.00;101465.06;5101900;28;20483;-65
2021/01/09 11:06:48;;;;;;;0.87;0.87;;;;;;;3.07;100.00;101458.66;5099946;28;20449;-67
2021/01/09 11:09:14;;;;;;;0.40;0.40;;;;;;;3.06;100.00;101464.25;5098661;28;20452;-66
2021/01/09 11:11:47;;;;;;;0.40;0.30;;;;;;;3.17;100.00;101452.72;5100067;28;20459;-65
2021/01/09 11:14:13;;;;;;;0.40;0.30;;;;;;;3.31;100.00;101459.50;5099126;28;20460;-66
2021/01/09 11:16:40;;;;;;;1.17;1.17;;;;;;;3.46;100.00;101461.75;5099808;28;20448;-66
2021/01/09 11:19:07;;;;;;;1.07;1.07;;;;;;;3.56;100.00;101461.97;5099099;28;20903;-65
2021/01/09 11:21:33;;;;;;;0.93;0.70;;;;;;;3.59;99.79;101466.06;5097991;28;20480;-64
2021/01/09 11:24:00;;;;;;;0.50;0.43;;;;;;;3.48;99.57;101471.16;5095809;28;20472;-65
2021/01/09 11:26:27;;;;;;;0.70;0.40;;;;;;;3.47;99.91;101464.19;5098460;28;20432;-66
2021/01/09 11:28:55;;;;;;;0.40;0.30;;;;;;;3.52;99.38;101463.47;5098890;28;20870;-65
2021/01/09 11:31:22;;;;;;;2.00;1.27;;;;;;;3.57;99.45;101463.59;5099912;28;20452;-65